createdAt,value
2022-11-07T00:01:21.585Z,7.74
2022-11-07T00:04:10.601Z,7.47
2022-11-07T00:06:58.062Z,7.55
2022-11-07T00:09:45.185Z,7.61
2022-11-07T00:12:35.184Z,7.63
2022-11-07T00:15:22.017Z,7.61
2022-11-07T00:18:12.038Z,7.54
2022-11-07T00:21:07.066Z,7.57
2022-11-07T00:23:53.932Z,7.61
2022-11-07T00:26:44.358Z,7.65
2022-11-07T00:29:31.165Z,7.67
2022-11-07T00:32:22.030Z,7.81
2022-11-07T00:35:12.745Z,7.75
2022-11-07T00:37:59.590Z,7.82
2022-11-07T00:40:56.159Z,7.87
2022-11-07T00:43:43.101Z,7.87
2022-11-07T00:46:29.987Z,7.88
2022-11-07T00:49:16.814Z,7.92
2022-11-07T00:52:03.792Z,7.92
2022-11-07T00:54:50.545Z,7.90
2022-11-07T00:57:37.315Z,7.91
2022-11-07T01:00:24.102Z,7.89
2022-11-07T01:03:29.529Z,7.93
2022-11-07T01:06:16.289Z,7.83
2022-11-07T01:09:04.829Z,7.90
2022-11-07T01:11:51.614Z,7.97
2022-11-07T01:14:38.399Z,7.98
2022-11-07T01:17:25.215Z,8.04
2022-11-07T01:20:12.660Z,8.19
2022-11-07T01:22:59.415Z,8.16
2022-11-07T01:25:46.215Z,8.22
2022-11-07T01:28:36.146Z,8.32
2022-11-07T01:31:22.945Z,8.35
2022-11-07T01:34:35.049Z,8.37
2022-11-07T01:37:21.793Z,8.39
2022-11-07T01:40:09.264Z,8.37
2022-11-07T01:42:56.165Z,8.36
2022-11-07T01:45:43.009Z,8.33
2022-11-07T01:48:31.902Z,8.38
2022-11-07T01:51:20.248Z,8.40
2022-11-07T01:54:13.619Z,8.35
2022-11-07T01:57:05.103Z,8.33
2022-11-07T01:59:54.834Z,8.34
2022-11-07T02:02:44.218Z,8.28
2022-11-07T02:05:35.323Z,8.39
2022-11-07T02:08:23.524Z,8.39
2022-11-07T02:11:12.217Z,8.39
2022-11-07T02:13:59.052Z,8.39
2022-11-07T02:16:46.771Z,8.43
2022-11-07T02:19:45.784Z,8.45
2022-11-07T02:22:36.570Z,8.46
2022-11-07T02:25:23.423Z,8.51
2022-11-07T02:28:12.331Z,8.43
2022-11-07T02:30:59.168Z,8.47
2022-11-07T02:33:46.003Z,8.48
2022-11-07T02:36:33.185Z,8.55
2022-11-07T02:39:20.393Z,8.55
2022-11-07T02:42:07.491Z,8.54
2022-11-07T02:44:55.761Z,8.55
2022-11-07T02:47:42.769Z,8.45
2022-11-07T02:50:30.005Z,8.46
2022-11-07T02:53:17.095Z,8.51
2022-11-07T02:56:05.173Z,8.52
2022-11-07T02:58:55.008Z,8.57
2022-11-07T03:01:41.933Z,8.63
2022-11-07T03:04:28.821Z,8.51
2022-11-07T03:07:15.619Z,8.66
2022-11-07T03:10:04.802Z,8.57
2022-11-07T03:12:51.578Z,8.65
2022-11-07T03:15:38.487Z,8.70
2022-11-07T03:18:25.596Z,8.65
2022-11-07T03:21:12.435Z,8.75
2022-11-07T03:23:59.262Z,8.80
2022-11-07T03:26:46.039Z,8.84
2022-11-07T03:29:32.850Z,8.87
2022-11-07T03:32:19.611Z,8.89
2022-11-07T03:34:46.245Z,8.87
2022-11-07T03:37:12.675Z,8.91
2022-11-07T03:39:39.134Z,8.89
2022-11-07T03:42:05.755Z,8.86
2022-11-07T03:44:32.206Z,8.98
2022-11-07T03:46:58.670Z,9.01
2022-11-07T03:49:27.463Z,9.01
2022-11-07T03:51:53.975Z,9.06
2022-11-07T03:54:20.445Z,9.07
2022-11-07T03:56:46.889Z,9.10
2022-11-07T03:59:13.348Z,9.12
2022-11-07T04:01:39.912Z,9.15
2022-11-07T04:04:10.753Z,9.15
2022-11-07T04:06:37.278Z,9.16
2022-11-07T04:09:04.038Z,9.16
2022-11-07T04:12:02.834Z,9.09
2022-11-07T04:14:47.619Z,9.14
2022-11-07T04:17:20.534Z,9.19
2022-11-07T04:19:48.998Z,9.14
2022-11-07T04:22:15.705Z,9.09
2022-11-07T04:24:45.716Z,9.09
2022-11-07T04:27:33.640Z,9.08
2022-11-07T04:30:18.770Z,9.06
2022-11-07T04:32:53.255Z,9.04
2022-11-07T04:35:24.774Z,8.96
2022-11-07T04:37:51.659Z,8.85
2022-11-07T04:40:18.432Z,8.72
2022-11-07T04:42:45.731Z,8.67
2022-11-07T04:45:12.636Z,8.67
2022-11-07T04:47:40.810Z,8.58
2022-11-07T04:50:11.547Z,8.47
2022-11-07T04:52:38.301Z,8.45
2022-11-07T04:55:06.086Z,8.36
2022-11-07T04:57:34.911Z,8.39
2022-11-07T05:00:04.613Z,8.46
2022-11-07T05:02:31.228Z,8.58
2022-11-07T05:04:57.646Z,8.60
2022-11-07T05:07:26.295Z,8.55
2022-11-07T05:09:55.059Z,8.55
2022-11-07T05:12:21.553Z,8.56
2022-11-07T05:14:47.990Z,8.49
2022-11-07T05:17:15.314Z,8.46
2022-11-07T05:19:43.240Z,8.50
2022-11-07T05:22:29.053Z,8.58
2022-11-07T05:25:00.107Z,8.51
2022-11-07T05:27:26.579Z,8.53
2022-11-07T05:29:53.077Z,8.58
2022-11-07T05:32:21.947Z,8.50
2022-11-07T05:34:49.279Z,8.59
2022-11-07T05:37:18.080Z,8.62
2022-11-07T05:39:49.939Z,8.60
2022-11-07T05:42:20.352Z,8.65
2022-11-07T05:44:46.785Z,8.59
2022-11-07T05:47:13.237Z,8.63
2022-11-07T05:49:41.750Z,8.59
2022-11-07T05:52:08.172Z,8.60
2022-11-07T05:54:34.615Z,8.48
2022-11-07T05:57:01.109Z,8.48
2022-11-07T05:59:30.118Z,8.49
2022-11-07T06:01:59.007Z,8.55
2022-11-07T06:04:25.475Z,8.57
2022-11-07T06:06:51.916Z,8.56
2022-11-07T06:09:18.339Z,8.53
2022-11-07T06:11:45.239Z,8.40
2022-11-07T06:14:13.846Z,8.38
2022-11-07T06:16:40.283Z,8.37
2022-11-07T06:19:08.810Z,8.37
2022-11-07T06:21:37.890Z,8.42
2022-11-07T06:24:04.622Z,8.41
2022-11-07T06:26:31.059Z,8.48
2022-11-07T06:28:57.545Z,8.47
2022-11-07T06:31:24.150Z,8.54
2022-11-07T06:33:53.041Z,8.59
2022-11-07T06:36:19.562Z,8.54
2022-11-07T06:38:48.627Z,8.56
2022-11-07T06:41:15.216Z,8.49
2022-11-07T06:43:41.739Z,8.56
2022-11-07T06:46:14.480Z,8.69
2022-11-07T06:48:40.943Z,8.64
2022-11-07T06:51:09.777Z,8.65
2022-11-07T06:53:37.163Z,8.68
2022-11-07T06:56:05.994Z,8.55
2022-11-07T06:58:32.728Z,8.58
2022-11-07T07:01:03.004Z,8.49
2022-11-07T07:03:32.031Z,8.51
2022-11-07T07:06:05.945Z,8.56
2022-11-07T07:08:33.527Z,8.70
2022-11-07T07:11:04.985Z,8.76
2022-11-07T07:13:31.685Z,8.88
2022-11-07T07:15:59.110Z,8.61
2022-11-07T07:18:26.639Z,8.84
2022-11-07T07:21:01.669Z,8.91
2022-11-07T07:23:28.116Z,8.90
2022-11-07T07:25:54.845Z,8.86
2022-11-07T07:28:23.527Z,9.04
2022-11-07T07:30:52.067Z,9.15
2022-11-07T07:33:21.633Z,8.89
2022-11-07T07:35:50.407Z,9.03
2022-11-07T07:38:16.897Z,9.32
2022-11-07T07:40:45.622Z,9.14
2022-11-07T07:43:12.292Z,9.41
2022-11-07T07:45:38.899Z,9.67
2022-11-07T07:48:08.270Z,10.71
2022-11-07T07:50:34.731Z,12.86
2022-11-07T07:53:08.686Z,11.95
2022-11-07T07:55:35.857Z,11.92
2022-11-07T07:58:02.299Z,11.26
2022-11-07T08:00:28.739Z,10.51
2022-11-07T08:03:02.259Z,10.50
2022-11-07T08:05:28.759Z,10.52
2022-11-07T08:07:55.227Z,10.58
2022-11-07T08:13:10.754Z,16.93
2022-11-07T08:15:37.514Z,18.87
2022-11-07T08:18:04.458Z,22.04
2022-11-07T08:20:31.133Z,24.14
2022-11-07T08:23:05.115Z,25.39
2022-11-07T08:25:33.878Z,26.46
2022-11-07T08:28:00.487Z,26.84
2022-11-07T08:30:28.270Z,26.65
2022-11-07T08:32:56.417Z,28.58
2022-11-07T08:35:22.876Z,29.88
2022-11-07T08:37:52.520Z,30.51
2022-11-07T08:40:19.297Z,29.72
2022-11-07T08:42:45.783Z,28.63
2022-11-07T08:45:12.251Z,26.41
2022-11-07T08:47:38.701Z,24.65
2022-11-07T08:50:05.674Z,25.06
2022-11-07T08:52:36.002Z,27.02
2022-11-07T08:55:05.768Z,29.96
2022-11-07T08:57:37.255Z,30.94
2022-11-07T09:00:06.607Z,29.69
2022-11-07T09:03:23.879Z,30.38
2022-11-07T09:05:19.563Z,30.38
2022-11-07T09:07:48.160Z,30.54
2022-11-07T09:10:16.969Z,31.39
2022-11-07T09:12:48.077Z,30.93
2022-11-07T09:15:15.142Z,32.51
2022-11-07T09:17:41.715Z,31.90
2022-11-07T09:20:09.483Z,32.67
2022-11-07T09:22:36.271Z,31.17
2022-11-07T09:25:02.909Z,31.49
2022-11-07T09:27:29.514Z,33.71
2022-11-07T09:29:55.999Z,34.52
2022-11-07T09:32:42.692Z,34.87
2022-11-07T09:35:13.126Z,34.24
2022-11-07T09:37:41.184Z,35.18
2022-11-07T09:40:52.419Z,35.96
2022-11-07T09:43:25.462Z,35.56
2022-11-07T09:46:13.514Z,34.81
2022-11-07T09:48:52.604Z,36.23
2022-11-07T09:51:38.610Z,35.40
2022-11-07T09:54:14.177Z,35.42
2022-11-07T09:56:42.465Z,35.65
2022-11-07T09:59:22.518Z,34.91
2022-11-07T10:01:49.125Z,33.08
2022-11-07T10:04:27.220Z,28.66
2022-11-07T10:06:56.225Z,24.54
2022-11-07T10:09:50.213Z,21.00
2022-11-07T10:12:44.484Z,19.98
2022-11-07T10:15:45.065Z,18.55
2022-11-07T10:18:42.690Z,17.86
2022-11-07T10:21:37.190Z,17.66
2022-11-07T10:24:33.431Z,17.20
2022-11-07T10:27:01.915Z,17.38
2022-11-07T10:29:44.906Z,17.01
2022-11-07T10:32:17.004Z,16.99
2022-11-07T10:35:16.571Z,16.92
2022-11-07T10:37:43.098Z,17.11
2022-11-07T10:40:16.238Z,16.74
2022-11-07T10:42:46.103Z,16.70
2022-11-07T10:45:17.503Z,16.60
2022-11-07T10:47:54.982Z,16.76
2022-11-07T10:50:23.740Z,16.74
2022-11-07T10:53:00.356Z,16.28
2022-11-07T10:55:31.400Z,16.39
2022-11-07T10:58:05.899Z,16.28
2022-11-07T11:00:34.424Z,16.15
2022-11-07T11:03:14.954Z,15.95
2022-11-07T11:05:48.682Z,15.59
2022-11-07T11:08:20.831Z,15.75
2022-11-07T11:10:48.405Z,15.91
2022-11-07T11:13:35.896Z,15.95
2022-11-07T11:16:26.376Z,15.94
2022-11-07T11:18:59.384Z,16.44
2022-11-07T11:21:25.898Z,16.23
2022-11-07T11:23:54.239Z,15.83
2022-11-07T11:26:33.344Z,15.80
2022-11-07T11:29:03.494Z,15.91
2022-11-07T11:31:35.075Z,15.69
2022-11-07T11:34:18.323Z,15.94
2022-11-07T11:37:14.648Z,15.93
2022-11-07T11:39:59.367Z,15.98
2022-11-07T11:42:38.076Z,16.08
2022-11-07T11:45:33.132Z,15.97
2022-11-07T11:48:13.460Z,15.95
2022-11-07T11:50:48.186Z,15.83
2022-11-07T11:53:22.623Z,15.93
2022-11-07T11:56:07.312Z,15.88
2022-11-07T11:58:46.842Z,15.93
2022-11-07T12:01:30.226Z,15.74
2022-11-07T12:04:14.329Z,15.73
2022-11-07T12:06:46.202Z,15.84
2022-11-07T12:09:32.914Z,15.90
2022-11-07T12:12:19.894Z,15.86
2022-11-07T12:15:25.515Z,15.74
2022-11-07T12:17:57.912Z,15.91
2022-11-07T12:20:34.812Z,15.92
2022-11-07T12:23:10.374Z,16.11
2022-11-07T12:26:04.251Z,16.15
2022-11-07T12:28:44.155Z,16.24
2022-11-07T12:31:44.575Z,15.90
2022-11-07T12:34:13.983Z,15.73
2022-11-07T12:36:54.264Z,15.70
2022-11-07T12:39:42.279Z,15.60
2022-11-07T12:42:23.784Z,15.45
2022-11-07T12:45:02.500Z,15.38
2022-11-07T12:47:53.796Z,15.34
2022-11-07T12:50:33.366Z,15.34
2022-11-07T12:53:15.414Z,15.65
2022-11-07T12:55:52.057Z,15.68
2022-11-07T12:58:25.067Z,15.60
2022-11-07T13:00:54.999Z,15.66
2022-11-07T13:03:57.579Z,15.58
2022-11-07T13:06:42.258Z,15.58
2022-11-07T13:09:21.663Z,15.47
2022-11-07T13:12:00.272Z,15.43
2022-11-07T13:14:36.904Z,15.44
2022-11-07T13:17:32.400Z,15.31
2022-11-07T13:20:05.498Z,15.07
2022-11-07T13:22:37.445Z,15.08
2022-11-07T13:25:16.967Z,15.04
2022-11-07T13:27:56.967Z,15.05
2022-11-07T13:30:37.830Z,14.98
2022-11-07T13:33:05.938Z,15.01
2022-11-07T13:35:38.080Z,15.08
2022-11-07T13:38:11.486Z,14.81
2022-11-07T13:40:50.704Z,14.84
2022-11-07T13:43:23.540Z,14.82
2022-11-07T13:45:52.113Z,14.86
2022-11-07T13:48:25.411Z,14.74
2022-11-07T13:51:03.035Z,14.79
2022-11-07T13:54:14.582Z,14.75
2022-11-07T13:57:01.631Z,14.51
2022-11-07T13:59:36.977Z,14.68
2022-11-07T14:02:04.577Z,14.74
2022-11-07T14:04:39.888Z,14.79
2022-11-07T14:07:13.714Z,14.57
2022-11-07T14:09:40.414Z,14.70
2022-11-07T14:12:09.167Z,14.78
2022-11-07T14:14:36.046Z,14.85
2022-11-07T14:17:05.078Z,14.80
2022-11-07T14:19:32.170Z,14.78
2022-11-07T14:21:58.943Z,14.73
2022-11-07T14:24:28.363Z,14.78
2022-11-07T14:27:00.773Z,14.50
2022-11-07T14:29:29.558Z,14.51
2022-11-07T14:32:01.855Z,14.49
2022-11-07T14:34:30.563Z,14.61
2022-11-07T14:37:02.145Z,14.63
2022-11-07T14:39:30.938Z,14.59
2022-11-07T14:42:00.923Z,14.49
2022-11-07T14:44:53.416Z,14.48
2022-11-07T14:47:31.820Z,14.49
2022-11-07T14:50:04.437Z,14.38
2022-11-07T14:52:36.430Z,14.36
2022-11-07T14:55:38.476Z,14.25
2022-11-07T14:58:06.105Z,14.27
2022-11-07T15:00:33.495Z,14.28
2022-11-07T15:03:00.376Z,14.29
2022-11-07T15:05:45.011Z,14.30
2022-11-07T15:08:35.437Z,14.22
2022-11-07T15:11:24.397Z,14.18
2022-11-07T15:13:53.281Z,14.04
2022-11-07T15:16:22.731Z,14.13
2022-11-07T15:19:01.450Z,14.14
2022-11-07T15:21:32.000Z,14.06
2022-11-07T15:24:00.561Z,14.00
2022-11-07T15:26:35.022Z,13.88
2022-11-07T15:29:19.860Z,13.82
2022-11-07T15:31:48.362Z,13.70
2022-11-07T15:34:29.058Z,13.65
2022-11-07T15:37:17.421Z,13.49
2022-11-07T15:39:46.651Z,13.37
2022-11-07T15:42:13.504Z,13.37
2022-11-07T15:44:42.208Z,13.43
2022-11-07T15:47:17.394Z,13.39
2022-11-07T15:49:43.929Z,13.23
2022-11-07T15:52:10.468Z,13.19
2022-11-07T15:54:36.907Z,13.22
2022-11-07T15:57:07.057Z,13.07
2022-11-07T15:59:35.604Z,13.09
2022-11-07T16:02:02.448Z,13.03
2022-11-07T16:04:29.402Z,13.19
2022-11-07T16:06:56.048Z,13.17
2022-11-07T16:09:22.756Z,13.25
2022-11-07T16:11:49.223Z,13.20
2022-11-07T16:14:43.602Z,13.13
2022-11-07T16:17:17.000Z,13.09
2022-11-07T16:19:45.858Z,13.03
2022-11-07T16:22:16.051Z,13.06
2022-11-07T16:24:42.511Z,13.07
2022-11-07T16:27:19.818Z,13.01
2022-11-07T16:29:48.616Z,12.83
2022-11-07T16:32:18.395Z,12.87
2022-11-07T16:34:45.728Z,12.74
2022-11-07T16:37:14.507Z,12.78
2022-11-07T16:39:40.951Z,12.58
2022-11-07T16:42:14.265Z,12.80
2022-11-07T16:44:43.165Z,12.74
2022-11-07T16:47:14.177Z,12.83
2022-11-07T16:49:41.423Z,12.79
2022-11-07T16:52:18.979Z,12.85
2022-11-07T16:54:45.967Z,12.94
2022-11-07T16:57:17.779Z,12.92
2022-11-07T16:59:46.866Z,12.57
2022-11-07T17:02:21.942Z,12.92
2022-11-07T17:04:52.996Z,12.88
2022-11-07T17:07:22.869Z,12.79
2022-11-07T17:09:49.906Z,12.75
2022-11-07T17:12:17.983Z,12.68
2022-11-07T17:14:47.081Z,12.74
2022-11-07T17:17:16.033Z,12.67
2022-11-07T17:19:43.305Z,12.57
2022-11-07T17:22:13.707Z,12.58
2022-11-07T17:24:42.974Z,12.54
2022-11-07T17:27:20.620Z,12.36
2022-11-07T17:29:52.139Z,12.42
2022-11-07T17:32:19.564Z,12.53
2022-11-07T17:34:46.743Z,12.49
2022-11-07T17:37:21.755Z,12.48
2022-11-07T17:39:50.518Z,12.49
2022-11-07T17:42:17.128Z,12.29
2022-11-07T17:44:43.592Z,12.43
2022-11-07T17:47:28.131Z,12.37
2022-11-07T17:49:55.762Z,12.31
2022-11-07T17:52:22.300Z,12.23
2022-11-07T17:54:48.908Z,12.25
2022-11-07T17:57:17.505Z,12.16
2022-11-07T17:59:46.010Z,11.92
2022-11-07T18:02:18.592Z,12.03
2022-11-07T18:05:03.624Z,11.90
2022-11-07T18:07:48.973Z,11.83
2022-11-07T18:10:35.783Z,11.73
2022-11-07T18:13:22.575Z,11.84
2022-11-07T18:16:11.052Z,11.69
2022-11-07T18:18:59.088Z,11.66
2022-11-07T18:21:48.364Z,11.46
2022-11-07T18:24:35.181Z,11.51
2022-11-07T18:27:22.177Z,11.46
2022-11-07T18:30:09.832Z,11.44
2022-11-07T18:32:56.664Z,11.47
2022-11-07T18:35:45.845Z,11.47
2022-11-07T18:38:33.003Z,11.53
2022-11-07T18:41:23.106Z,11.49
2022-11-07T18:44:11.702Z,11.59
2022-11-07T18:46:58.550Z,11.61
2022-11-07T18:49:45.450Z,11.69
2022-11-07T18:52:33.060Z,11.65
2022-11-07T18:55:22.806Z,11.70
2022-11-07T18:58:13.384Z,11.68
2022-11-07T19:01:06.540Z,11.54
2022-11-07T19:03:58.238Z,11.64
2022-11-07T19:06:59.375Z,11.63
2022-11-07T19:09:46.147Z,11.70
2022-11-07T19:12:32.949Z,11.68
2022-11-07T19:15:24.912Z,11.74
2022-11-07T19:18:11.678Z,11.74
2022-11-07T19:20:58.547Z,11.77
2022-11-07T19:23:45.320Z,11.80
2022-11-07T19:26:32.426Z,11.79
2022-11-07T19:29:21.640Z,11.82
2022-11-07T19:32:08.907Z,11.78
2022-11-07T19:34:55.715Z,11.64
2022-11-07T19:37:44.311Z,11.63
2022-11-07T19:40:31.430Z,11.69
2022-11-07T19:43:20.387Z,11.71
2022-11-07T19:46:13.149Z,11.71
2022-11-07T19:49:02.041Z,11.67
2022-11-07T19:51:48.911Z,11.58
2022-11-07T19:54:38.348Z,11.58
2022-11-07T19:57:25.150Z,11.59
2022-11-07T20:00:13.108Z,11.66
2022-11-07T20:02:59.944Z,11.68
2022-11-07T20:05:48.857Z,11.67
2022-11-07T20:08:39.026Z,11.67
2022-11-07T20:11:26.716Z,11.69
2022-11-07T20:14:13.649Z,11.66
2022-11-07T20:17:00.907Z,11.67
2022-11-07T20:19:47.840Z,11.71
2022-11-07T20:22:35.748Z,11.72
2022-11-07T20:25:22.580Z,11.68
2022-11-07T20:28:09.571Z,11.59
2022-11-07T20:30:56.421Z,11.61
2022-11-07T20:33:43.316Z,11.51
2022-11-07T20:36:31.227Z,11.43
2022-11-07T20:39:18.080Z,11.34
2022-11-07T20:42:04.983Z,11.38
2022-11-07T20:44:51.839Z,11.38
2022-11-07T20:47:39.733Z,11.34
2022-11-07T20:50:26.540Z,11.34
2022-11-07T20:53:13.605Z,11.20
2022-11-07T20:56:05.270Z,11.12
2022-11-07T20:58:53.019Z,11.08
2022-11-07T21:01:40.214Z,10.88
2022-11-07T21:04:27.062Z,10.96
2022-11-07T21:07:17.971Z,10.99
2022-11-07T21:10:05.104Z,10.87
2022-11-07T21:12:54.396Z,10.80
2022-11-07T21:15:41.262Z,10.84
2022-11-07T21:18:28.071Z,10.86
2022-11-07T21:21:18.509Z,10.88
2022-11-07T21:24:05.579Z,10.84
2022-11-07T21:26:52.383Z,10.78
2022-11-07T21:29:39.215Z,10.80
2022-11-07T21:32:25.983Z,10.71
2022-11-07T21:35:15.694Z,10.60
2022-11-07T21:38:02.494Z,10.57
2022-11-07T21:40:49.409Z,10.53
2022-11-07T21:43:44.308Z,10.48
2022-11-07T21:46:34.354Z,10.50
2022-11-07T21:49:21.219Z,10.47
2022-11-07T21:52:07.987Z,10.37
2022-11-07T21:54:54.824Z,10.43
2022-11-07T21:57:41.619Z,10.39
2022-11-07T22:00:31.725Z,10.35
2022-11-07T22:03:43.706Z,10.32
2022-11-07T22:06:32.983Z,10.23
2022-11-07T22:09:22.290Z,10.21
2022-11-07T22:12:11.507Z,10.18
2022-11-07T22:14:58.453Z,10.07
2022-11-07T22:17:45.234Z,10.01
2022-11-07T22:20:32.051Z,10.03
2022-11-07T22:23:18.983Z,9.88
2022-11-07T22:26:09.599Z,9.49
2022-11-07T22:28:56.490Z,9.65
2022-11-07T22:31:43.306Z,9.70
2022-11-07T22:34:30.214Z,9.71
2022-11-07T22:37:17.110Z,9.63
2022-11-07T22:40:06.732Z,9.65
2022-11-07T22:42:53.516Z,9.47
2022-11-07T22:45:41.259Z,9.37
2022-11-07T22:48:28.207Z,9.38
2022-11-07T22:51:17.666Z,9.53
2022-11-07T22:54:06.988Z,9.51
2022-11-07T22:56:53.811Z,9.47
2022-11-07T22:59:43.095Z,9.40
2022-11-07T23:02:31.976Z,9.32
2022-11-07T23:05:18.897Z,9.32
2022-11-07T23:08:05.691Z,9.25
2022-11-07T23:14:12.791Z,9.33
2022-11-07T23:16:59.567Z,9.22
2022-11-07T23:19:46.342Z,9.10
2022-11-07T23:22:33.260Z,9.15
2022-11-07T23:25:20.057Z,9.15
2022-11-07T23:28:07.426Z,9.14
2022-11-07T23:30:54.270Z,9.19
2022-11-07T23:33:41.113Z,9.15
2022-11-07T23:36:27.898Z,9.16
2022-11-07T23:39:20.911Z,9.07
2022-11-07T23:42:10.687Z,9.06
2022-11-07T23:45:16.262Z,9.05
2022-11-07T23:48:21.838Z,9.00
2022-11-07T23:51:11.859Z,8.98
2022-11-07T23:54:17.434Z,8.86
2022-11-07T23:57:04.210Z,8.95
